sensor_id;sensor_type;location;lat;lon;timestamp;temperature;humidity
10282;DHT22;5186;59.472;18.048;2022-08-03T00:01:28;17.90;99.90
10282;DHT22;5186;59.472;18.048;2022-08-03T00:03:54;17.90;99.90
10282;DHT22;5186;59.472;18.048;2022-08-03T00:06:20;17.90;99.90
10282;DHT22;5186;59.472;18.048;2022-08-03T00:08:45;17.80;99.90
10282;DHT22;5186;59.472;18.048;2022-08-03T00:11:11;17.80;99.90
10282;DHT22;5186;59.472;18.048;2022-08-03T00:13:37;17.90;99.90
10282;DHT22;5186;59.472;18.048;2022-08-03T00:16:03;17.90;99.90
10282;DHT22;5186;59.472;18.048;2022-08-03T00:18:28;17.80;99.90
10282;DHT22;5186;59.472;18.048;2022-08-03T00:20:54;17.70;99.90
10282;DHT22;5186;59.472;18.048;2022-08-03T00:23:20;17.80;99.90
10282;DHT22;5186;59.472;18.048;2022-08-03T00:25:45;17.80;99.90
10282;DHT22;5186;59.472;18.048;2022-08-03T00:28:11;17.80;99.90
10282;DHT22;5186;59.472;18.048;2022-08-03T00:30:37;17.70;99.90
10282;DHT22;5186;59.472;18.048;2022-08-03T00:33:02;17.70;99.90
10282;DHT22;5186;59.472;18.048;2022-08-03T00:35:29;17.70;99.90
10282;DHT22;5186;59.472;18.048;2022-08-03T00:37:55;17.70;99.90
10282;DHT22;5186;59.472;18.048;2022-08-03T00:40:21;17.70;99.90
10282;DHT22;5186;59.472;18.048;2022-08-03T00:43:04;17.60;99.90
10282;DHT22;5186;59.472;18.048;2022-08-03T00:45:33;17.60;99.90
10282;DHT22;5186;59.472;18.048;2022-08-03T00:47:59;17.60;99.90
10282;DHT22;5186;59.472;18.048;2022-08-03T00:50:27;17.60;99.90
10282;DHT22;5186;59.472;18.048;2022-08-03T00:52:56;17.50;99.90
10282;DHT22;5186;59.472;18.048;2022-08-03T00:55:22;17.50;99.90
10282;DHT22;5186;59.472;18.048;2022-08-03T00:57:48;17.50;99.90
10282;DHT22;5186;59.472;18.048;2022-08-03T01:00:20;17.40;99.90
10282;DHT22;5186;59.472;18.048;2022-08-03T01:02:46;17.30;99.90
10282;DHT22;5186;59.472;18.048;2022-08-03T01:05:12;17.30;99.90
10282;DHT22;5186;59.472;18.048;2022-08-03T01:08:01;17.20;99.90
10282;DHT22;5186;59.472;18.048;2022-08-03T01:16:25;17.10;99.90
10282;DHT22;5186;59.472;18.048;2022-08-03T01:18:59;17.00;99.90
10282;DHT22;5186;59.472;18.048;2022-08-03T01:21:31;17.00;99.90
10282;DHT22;5186;59.472;18.048;2022-08-03T01:24:18;17.00;99.90
10282;DHT22;5186;59.472;18.048;2022-08-03T01:27:39;16.90;99.90
10282;DHT22;5186;59.472;18.048;2022-08-03T01:30:03;16.90;99.90
10282;DHT22;5186;59.472;18.048;2022-08-03T01:35:25;16.80;99.90
10282;DHT22;5186;59.472;18.048;2022-08-03T01:37:57;16.80;99.90
10282;DHT22;5186;59.472;18.048;2022-08-03T01:40:26;16.80;99.90
10282;DHT22;5186;59.472;18.048;2022-08-03T01:42:54;16.80;99.90
10282;DHT22;5186;59.472;18.048;2022-08-03T01:45:23;16.80;99.90
10282;DHT22;5186;59.472;18.048;2022-08-03T01:47:49;16.80;99.90
10282;DHT22;5186;59.472;18.048;2022-08-03T01:50:20;16.80;99.90
10282;DHT22;5186;59.472;18.048;2022-08-03T01:52:47;16.80;99.90
10282;DHT22;5186;59.472;18.048;2022-08-03T01:55:16;16.90;99.90
10282;DHT22;5186;59.472;18.048;2022-08-03T01:57:44;16.80;99.90
10282;DHT22;5186;59.472;18.048;2022-08-03T02:00:13;16.90;99.90
10282;DHT22;5186;59.472;18.048;2022-08-03T02:02:39;16.90;99.90
10282;DHT22;5186;59.472;18.048;2022-08-03T02:05:08;16.90;99.90
10282;DHT22;5186;59.472;18.048;2022-08-03T02:07:35;17.00;99.90
10282;DHT22;5186;59.472;18.048;2022-08-03T02:10:03;17.00;99.90
10282;DHT22;5186;59.472;18.048;2022-08-03T02:12:30;16.90;99.90
10282;DHT22;5186;59.472;18.048;2022-08-03T02:14:58;16.90;99.90
10282;DHT22;5186;59.472;18.048;2022-08-03T02:17:25;16.90;99.90
10282;DHT22;5186;59.472;18.048;2022-08-03T02:19:53;16.90;99.90
10282;DHT22;5186;59.472;18.048;2022-08-03T02:22:22;16.90;99.90
10282;DHT22;5186;59.472;18.048;2022-08-03T02:24:48;17.00;99.90
10282;DHT22;5186;59.472;18.048;2022-08-03T02:27:22;17.00;99.90
10282;DHT22;5186;59.472;18.048;2022-08-03T02:29:52;17.10;99.90
10282;DHT22;5186;59.472;18.048;2022-08-03T02:32:23;17.00;99.90
10282;DHT22;5186;59.472;18.048;2022-08-03T02:34:54;17.10;99.90
10282;DHT22;5186;59.472;18.048;2022-08-03T02:37:25;17.00;99.90
10282;DHT22;5186;59.472;18.048;2022-08-03T02:39:56;17.00;99.90
10282;DHT22;5186;59.472;18.048;2022-08-03T02:42:25;17.00;99.90
10282;DHT22;5186;59.472;18.048;2022-08-03T02:44:52;17.10;99.90
10282;DHT22;5186;59.472;18.048;2022-08-03T02:47:20;17.10;99.90
10282;DHT22;5186;59.472;18.048;2022-08-03T02:49:47;17.10;99.90
10282;DHT22;5186;59.472;18.048;2022-08-03T02:52:14;17.10;99.90
10282;DHT22;5186;59.472;18.048;2022-08-03T02:54:42;17.10;99.90
10282;DHT22;5186;59.472;18.048;2022-08-03T02:57:10;17.10;99.90
10282;DHT22;5186;59.472;18.048;2022-08-03T02:59:38;17.10;99.90
10282;DHT22;5186;59.472;18.048;2022-08-03T03:02:04;17.10;99.90
10282;DHT22;5186;59.472;18.048;2022-08-03T03:04:31;17.10;99.90
10282;DHT22;5186;59.472;18.048;2022-08-03T03:06:57;17.10;99.90
10282;DHT22;5186;59.472;18.048;2022-08-03T03:09:24;17.10;99.90
10282;DHT22;5186;59.472;18.048;2022-08-03T03:11:50;17.10;99.90
10282;DHT22;5186;59.472;18.048;2022-08-03T03:14:17;17.10;99.90
10282;DHT22;5186;59.472;18.048;2022-08-03T03:16:44;17.10;99.90
10282;DHT22;5186;59.472;18.048;2022-08-03T03:19:12;17.10;99.90
10282;DHT22;5186;59.472;18.048;2022-08-03T03:21:39;17.10;99.90
10282;DHT22;5186;59.472;18.048;2022-08-03T03:24:05;17.00;99.90
10282;DHT22;5186;59.472;18.048;2022-08-03T03:26:32;17.00;99.90
10282;DHT22;5186;59.472;18.048;2022-08-03T03:29:00;17.00;99.90
10282;DHT22;5186;59.472;18.048;2022-08-03T03:31:26;17.00;99.90
10282;DHT22;5186;59.472;18.048;2022-08-03T03:33:52;17.00;99.90
10282;DHT22;5186;59.472;18.048;2022-08-03T03:36:17;17.00;99.90
10282;DHT22;5186;59.472;18.048;2022-08-03T03:38:43;16.90;99.90
10282;DHT22;5186;59.472;18.048;2022-08-03T03:41:09;16.90;99.90
10282;DHT22;5186;59.472;18.048;2022-08-03T03:43:35;16.80;99.90
10282;DHT22;5186;59.472;18.048;2022-08-03T03:46:01;16.90;99.90
10282;DHT22;5186;59.472;18.048;2022-08-03T03:48:27;16.80;99.90
10282;DHT22;5186;59.472;18.048;2022-08-03T03:50:53;16.80;99.90
10282;DHT22;5186;59.472;18.048;2022-08-03T03:53:19;16.90;99.90
10282;DHT22;5186;59.472;18.048;2022-08-03T03:55:45;16.90;99.90
10282;DHT22;5186;59.472;18.048;2022-08-03T03:58:10;16.90;99.90
10282;DHT22;5186;59.472;18.048;2022-08-03T04:00:36;17.00;99.90
10282;DHT22;5186;59.472;18.048;2022-08-03T04:03:01;16.90;99.90
10282;DHT22;5186;59.472;18.048;2022-08-03T04:05:27;16.80;99.90
10282;DHT22;5186;59.472;18.048;2022-08-03T04:08:16;16.80;99.90
10282;DHT22;5186;59.472;18.048;2022-08-03T04:14:02;16.90;99.90
10282;DHT22;5186;59.472;18.048;2022-08-03T04:16:35;16.90;99.90
10282;DHT22;5186;59.472;18.048;2022-08-03T04:19:05;16.90;99.90
10282;DHT22;5186;59.472;18.048;2022-08-03T04:21:32;16.90;99.90
10282;DHT22;5186;59.472;18.048;2022-08-03T04:24:02;16.90;99.90
10282;DHT22;5186;59.472;18.048;2022-08-03T04:26:31;16.90;99.90
10282;DHT22;5186;59.472;18.048;2022-08-03T04:28:58;17.00;99.90
10282;DHT22;5186;59.472;18.048;2022-08-03T04:31:24;17.00;99.90
10282;DHT22;5186;59.472;18.048;2022-08-03T04:33:52;17.10;99.90
10282;DHT22;5186;59.472;18.048;2022-08-03T04:36:25;17.10;99.90
10282;DHT22;5186;59.472;18.048;2022-08-03T04:39:02;17.20;99.90
10282;DHT22;5186;59.472;18.048;2022-08-03T04:41:29;17.20;99.90
10282;DHT22;5186;59.472;18.048;2022-08-03T04:43:57;17.20;99.90
10282;DHT22;5186;59.472;18.048;2022-08-03T04:46:26;17.30;99.90
10282;DHT22;5186;59.472;18.048;2022-08-03T04:48:53;17.30;99.90
10282;DHT22;5186;59.472;18.048;2022-08-03T04:51:19;17.40;99.90
10282;DHT22;5186;59.472;18.048;2022-08-03T04:53:45;17.40;99.90
10282;DHT22;5186;59.472;18.048;2022-08-03T04:56:10;17.50;99.90
10282;DHT22;5186;59.472;18.048;2022-08-03T04:58:36;17.60;99.90
10282;DHT22;5186;59.472;18.048;2022-08-03T05:01:02;17.70;99.90
10282;DHT22;5186;59.472;18.048;2022-08-03T05:03:27;17.70;99.90
10282;DHT22;5186;59.472;18.048;2022-08-03T05:05:54;17.80;99.90
10282;DHT22;5186;59.472;18.048;2022-08-03T05:08:20;17.90;99.90
10282;DHT22;5186;59.472;18.048;2022-08-03T05:10:46;18.00;99.90
10282;DHT22;5186;59.472;18.048;2022-08-03T05:13:12;18.10;99.90
10282;DHT22;5186;59.472;18.048;2022-08-03T05:15:38;18.10;99.90
10282;DHT22;5186;59.472;18.048;2022-08-03T05:18:04;18.10;99.90
10282;DHT22;5186;59.472;18.048;2022-08-03T05:20:30;18.20;99.90
10282;DHT22;5186;59.472;18.048;2022-08-03T05:22:56;18.20;99.90
10282;DHT22;5186;59.472;18.048;2022-08-03T05:25:22;18.20;99.90
10282;DHT22;5186;59.472;18.048;2022-08-03T05:27:48;18.30;99.90
10282;DHT22;5186;59.472;18.048;2022-08-03T05:30:14;18.30;99.90
10282;DHT22;5186;59.472;18.048;2022-08-03T05:32:40;18.30;99.90
10282;DHT22;5186;59.472;18.048;2022-08-03T05:35:06;18.40;99.90
10282;DHT22;5186;59.472;18.048;2022-08-03T05:37:32;18.40;99.90
10282;DHT22;5186;59.472;18.048;2022-08-03T05:39:57;18.50;99.90
10282;DHT22;5186;59.472;18.048;2022-08-03T05:42:23;18.60;99.90
10282;DHT22;5186;59.472;18.048;2022-08-03T05:44:49;18.60;99.90
10282;DHT22;5186;59.472;18.048;2022-08-03T05:47:15;18.60;99.90
10282;DHT22;5186;59.472;18.048;2022-08-03T05:49:41;18.60;99.90
10282;DHT22;5186;59.472;18.048;2022-08-03T05:52:06;18.60;99.90
10282;DHT22;5186;59.472;18.048;2022-08-03T05:54:32;18.60;99.90
10282;DHT22;5186;59.472;18.048;2022-08-03T05:56:57;18.70;99.90
10282;DHT22;5186;59.472;18.048;2022-08-03T05:59:23;18.70;99.90
10282;DHT22;5186;59.472;18.048;2022-08-03T06:01:50;18.80;99.90
10282;DHT22;5186;59.472;18.048;2022-08-03T06:04:15;18.90;99.90
10282;DHT22;5186;59.472;18.048;2022-08-03T06:06:41;19.00;99.90
10282;DHT22;5186;59.472;18.048;2022-08-03T06:09:08;19.00;99.90
10282;DHT22;5186;59.472;18.048;2022-08-03T06:11:35;19.00;99.90
10282;DHT22;5186;59.472;18.048;2022-08-03T06:14:01;19.00;99.90
10282;DHT22;5186;59.472;18.048;2022-08-03T06:16:26;19.00;99.90
10282;DHT22;5186;59.472;18.048;2022-08-03T06:18:52;19.10;99.90
10282;DHT22;5186;59.472;18.048;2022-08-03T06:21:17;19.10;99.90
10282;DHT22;5186;59.472;18.048;2022-08-03T06:23:44;19.10;99.90
10282;DHT22;5186;59.472;18.048;2022-08-03T06:26:10;19.10;99.90
10282;DHT22;5186;59.472;18.048;2022-08-03T06:28:36;19.20;99.90
10282;DHT22;5186;59.472;18.048;2022-08-03T06:31:02;19.30;99.90
10282;DHT22;5186;59.472;18.048;2022-08-03T06:33:28;19.30;99.90
10282;DHT22;5186;59.472;18.048;2022-08-03T06:35:53;19.40;99.90
10282;DHT22;5186;59.472;18.048;2022-08-03T06:38:19;19.50;99.90
10282;DHT22;5186;59.472;18.048;2022-08-03T06:40:45;19.60;99.90
10282;DHT22;5186;59.472;18.048;2022-08-03T06:43:10;19.60;99.90
10282;DHT22;5186;59.472;18.048;2022-08-03T06:45:36;19.60;99.90
10282;DHT22;5186;59.472;18.048;2022-08-03T06:48:07;19.70;99.90
10282;DHT22;5186;59.472;18.048;2022-08-03T06:50:34;19.70;99.90
10282;DHT22;5186;59.472;18.048;2022-08-03T06:53:00;19.80;99.90
10282;DHT22;5186;59.472;18.048;2022-08-03T06:55:26;19.80;99.90
10282;DHT22;5186;59.472;18.048;2022-08-03T06:57:52;19.70;99.90
10282;DHT22;5186;59.472;18.048;2022-08-03T07:00:18;19.80;99.90
10282;DHT22;5186;59.472;18.048;2022-08-03T07:02:44;19.90;99.90
10282;DHT22;5186;59.472;18.048;2022-08-03T07:05:10;19.90;99.90
10282;DHT22;5186;59.472;18.048;2022-08-03T07:07:36;19.90;99.90
10282;DHT22;5186;59.472;18.048;2022-08-03T07:10:02;20.00;99.90
10282;DHT22;5186;59.472;18.048;2022-08-03T07:12:29;20.00;99.90
10282;DHT22;5186;59.472;18.048;2022-08-03T07:14:56;20.00;99.90
10282;DHT22;5186;59.472;18.048;2022-08-03T07:17:22;20.00;99.90
10282;DHT22;5186;59.472;18.048;2022-08-03T07:19:48;20.10;99.90
10282;DHT22;5186;59.472;18.048;2022-08-03T07:22:14;20.10;99.90
10282;DHT22;5186;59.472;18.048;2022-08-03T07:24:39;20.10;99.90
10282;DHT22;5186;59.472;18.048;2022-08-03T07:27:06;20.20;99.90
10282;DHT22;5186;59.472;18.048;2022-08-03T07:29:33;20.20;99.90
10282;DHT22;5186;59.472;18.048;2022-08-03T07:31:59;20.30;99.90
10282;DHT22;5186;59.472;18.048;2022-08-03T07:34:25;20.40;99.90
10282;DHT22;5186;59.472;18.048;2022-08-03T07:36:51;20.50;99.90
10282;DHT22;5186;59.472;18.048;2022-08-03T07:39:17;20.50;99.90
10282;DHT22;5186;59.472;18.048;2022-08-03T07:41:42;20.60;99.90
10282;DHT22;5186;59.472;18.048;2022-08-03T07:44:08;20.70;99.90
10282;DHT22;5186;59.472;18.048;2022-08-03T07:46:33;20.70;99.90
10282;DHT22;5186;59.472;18.048;2022-08-03T07:48:59;20.60;99.90
10282;DHT22;5186;59.472;18.048;2022-08-03T07:51:25;20.60;99.90
10282;DHT22;5186;59.472;18.048;2022-08-03T07:53:51;20.70;99.90
10282;DHT22;5186;59.472;18.048;2022-08-03T07:56:16;20.70;99.90
10282;DHT22;5186;59.472;18.048;2022-08-03T07:58:42;20.80;99.90
10282;DHT22;5186;59.472;18.048;2022-08-03T08:01:08;20.90;99.90
10282;DHT22;5186;59.472;18.048;2022-08-03T08:03:33;20.90;99.90
10282;DHT22;5186;59.472;18.048;2022-08-03T08:05:59;20.90;99.90
10282;DHT22;5186;59.472;18.048;2022-08-03T08:08:25;21.00;99.90
10282;DHT22;5186;59.472;18.048;2022-08-03T08:10:50;21.10;99.90
10282;DHT22;5186;59.472;18.048;2022-08-03T08:13:16;21.10;99.90
10282;DHT22;5186;59.472;18.048;2022-08-03T08:15:42;21.10;99.90
10282;DHT22;5186;59.472;18.048;2022-08-03T08:18:07;21.10;99.90
10282;DHT22;5186;59.472;18.048;2022-08-03T08:20:34;21.20;99.90
10282;DHT22;5186;59.472;18.048;2022-08-03T08:23:04;21.30;99.90
10282;DHT22;5186;59.472;18.048;2022-08-03T08:25:31;21.40;99.90
10282;DHT22;5186;59.472;18.048;2022-08-03T08:27:57;21.40;99.90
10282;DHT22;5186;59.472;18.048;2022-08-03T08:30:26;21.50;99.90
10282;DHT22;5186;59.472;18.048;2022-08-03T08:32:52;21.70;99.90
10282;DHT22;5186;59.472;18.048;2022-08-03T08:35:18;21.90;99.90
10282;DHT22;5186;59.472;18.048;2022-08-03T08:37:44;22.00;99.90
10282;DHT22;5186;59.472;18.048;2022-08-03T08:40:10;22.10;99.90
10282;DHT22;5186;59.472;18.048;2022-08-03T08:42:38;22.10;99.90
10282;DHT22;5186;59.472;18.048;2022-08-03T08:45:05;22.20;99.90
10282;DHT22;5186;59.472;18.048;2022-08-03T08:47:35;22.30;99.90
10282;DHT22;5186;59.472;18.048;2022-08-03T08:50:02;22.40;99.90
10282;DHT22;5186;59.472;18.048;2022-08-03T08:52:28;22.40;99.90
10282;DHT22;5186;59.472;18.048;2022-08-03T08:54:58;22.50;99.90
10282;DHT22;5186;59.472;18.048;2022-08-03T08:57:33;22.50;99.90
10282;DHT22;5186;59.472;18.048;2022-08-03T09:00:04;22.50;99.90
10282;DHT22;5186;59.472;18.048;2022-08-03T09:02:31;22.30;99.90
10282;DHT22;5186;59.472;18.048;2022-08-03T09:04:57;22.30;99.90
10282;DHT22;5186;59.472;18.048;2022-08-03T09:07:23;22.30;99.90
10282;DHT22;5186;59.472;18.048;2022-08-03T09:09:49;22.30;99.90
10282;DHT22;5186;59.472;18.048;2022-08-03T09:12:14;22.30;99.90
10282;DHT22;5186;59.472;18.048;2022-08-03T09:14:40;22.40;99.90
10282;DHT22;5186;59.472;18.048;2022-08-03T09:17:06;22.40;99.90
10282;DHT22;5186;59.472;18.048;2022-08-03T09:19:33;22.50;99.90
10282;DHT22;5186;59.472;18.048;2022-08-03T09:24:56;22.50;99.90
10282;DHT22;5186;59.472;18.048;2022-08-03T09:27:22;22.50;99.90
10282;DHT22;5186;59.472;18.048;2022-08-03T09:29:52;22.60;99.90
10282;DHT22;5186;59.472;18.048;2022-08-03T09:32:20;22.60;99.90
10282;DHT22;5186;59.472;18.048;2022-08-03T09:34:47;22.70;99.90
10282;DHT22;5186;59.472;18.048;2022-08-03T09:37:15;22.70;99.90
10282;DHT22;5186;59.472;18.048;2022-08-03T09:39:41;22.80;99.90
10282;DHT22;5186;59.472;18.048;2022-08-03T09:44:42;22.90;99.90
10282;DHT22;5186;59.472;18.048;2022-08-03T09:47:09;22.90;99.90
10282;DHT22;5186;59.472;18.048;2022-08-03T09:49:36;23.00;99.90
10282;DHT22;5186;59.472;18.048;2022-08-03T09:52:15;23.10;99.90
10282;DHT22;5186;59.472;18.048;2022-08-03T09:54:42;23.20;99.90
10282;DHT22;5186;59.472;18.048;2022-08-03T09:57:18;23.20;99.90
10282;DHT22;5186;59.472;18.048;2022-08-03T09:59:45;23.20;99.90
10282;DHT22;5186;59.472;18.048;2022-08-03T10:02:23;23.30;99.90
10282;DHT22;5186;59.472;18.048;2022-08-03T10:04:49;23.40;99.90
10282;DHT22;5186;59.472;18.048;2022-08-03T10:07:17;23.50;99.90
10282;DHT22;5186;59.472;18.048;2022-08-03T10:09:58;23.50;99.90
10282;DHT22;5186;59.472;18.048;2022-08-03T10:12:24;23.60;99.90
10282;DHT22;5186;59.472;18.048;2022-08-03T10:14:50;23.70;99.90
10282;DHT22;5186;59.472;18.048;2022-08-03T10:17:17;23.80;99.90
10282;DHT22;5186;59.472;18.048;2022-08-03T10:19:43;23.90;99.90
10282;DHT22;5186;59.472;18.048;2022-08-03T10:22:27;23.90;99.90
10282;DHT22;5186;59.472;18.048;2022-08-03T10:24:59;24.00;99.90
10282;DHT22;5186;59.472;18.048;2022-08-03T10:27:31;24.00;99.90
10282;DHT22;5186;59.472;18.048;2022-08-03T10:30:01;24.10;99.90
10282;DHT22;5186;59.472;18.048;2022-08-03T10:32:41;24.20;99.90
10282;DHT22;5186;59.472;18.048;2022-08-03T10:35:12;24.20;99.90
10282;DHT22;5186;59.472;18.048;2022-08-03T10:37:43;24.40;99.90
10282;DHT22;5186;59.472;18.048;2022-08-03T10:40:13;24.40;99.90
10282;DHT22;5186;59.472;18.048;2022-08-03T10:42:42;24.50;99.90
10282;DHT22;5186;59.472;18.048;2022-08-03T10:45:17;24.50;99.90
10282;DHT22;5186;59.472;18.048;2022-08-03T10:47:43;24.50;99.90
10282;DHT22;5186;59.472;18.048;2022-08-03T10:50:10;24.60;99.90
10282;DHT22;5186;59.472;18.048;2022-08-03T10:52:55;24.70;99.90
10282;DHT22;5186;59.472;18.048;2022-08-03T10:55:36;24.80;99.90
10282;DHT22;5186;59.472;18.048;2022-08-03T11:01:03;24.80;99.90
10282;DHT22;5186;59.472;18.048;2022-08-03T11:03:30;24.80;99.90
10282;DHT22;5186;59.472;18.048;2022-08-03T11:06:22;24.80;99.90
10282;DHT22;5186;59.472;18.048;2022-08-03T11:09:12;24.70;99.90
10282;DHT22;5186;59.472;18.048;2022-08-03T11:11:46;24.80;99.90
10282;DHT22;5186;59.472;18.048;2022-08-03T11:14:18;24.70;99.90
10282;DHT22;5186;59.472;18.048;2022-08-03T11:16:49;24.70;99.90
10282;DHT22;5186;59.472;18.048;2022-08-03T11:19:18;24.80;99.90
10282;DHT22;5186;59.472;18.048;2022-08-03T11:29:58;24.90;99.90
10282;DHT22;5186;59.472;18.048;2022-08-03T11:40:45;24.90;99.90
10282;DHT22;5186;59.472;18.048;2022-08-03T11:48:44;25.20;99.90
10282;DHT22;5186;59.472;18.048;2022-08-03T11:51:26;25.40;99.90
10282;DHT22;5186;59.472;18.048;2022-08-03T11:54:03;25.30;99.90
10282;DHT22;5186;59.472;18.048;2022-08-03T11:56:44;25.30;99.90
10282;DHT22;5186;59.472;18.048;2022-08-03T11:59:09;25.40;99.90
10282;DHT22;5186;59.472;18.048;2022-08-03T12:01:35;25.40;99.90
10282;DHT22;5186;59.472;18.048;2022-08-03T12:04:03;25.30;99.90
10282;DHT22;5186;59.472;18.048;2022-08-03T12:06:29;25.30;99.90
10282;DHT22;5186;59.472;18.048;2022-08-03T12:08:55;25.30;99.90
10282;DHT22;5186;59.472;18.048;2022-08-03T12:11:20;25.30;99.90
10282;DHT22;5186;59.472;18.048;2022-08-03T12:13:48;25.30;99.90
10282;DHT22;5186;59.472;18.048;2022-08-03T12:16:22;25.20;99.90
10282;DHT22;5186;59.472;18.048;2022-08-03T12:19:14;25.30;99.90
10282;DHT22;5186;59.472;18.048;2022-08-03T12:21:49;25.30;99.90
10282;DHT22;5186;59.472;18.048;2022-08-03T12:24:15;25.20;99.90
10282;DHT22;5186;59.472;18.048;2022-08-03T12:26:46;25.20;99.90
10282;DHT22;5186;59.472;18.048;2022-08-03T12:29:21;25.10;99.90
10282;DHT22;5186;59.472;18.048;2022-08-03T12:31:50;25.10;99.90
10282;DHT22;5186;59.472;18.048;2022-08-03T12:34:16;25.00;99.90
10282;DHT22;5186;59.472;18.048;2022-08-03T12:36:54;25.00;99.90
10282;DHT22;5186;59.472;18.048;2022-08-03T12:39:24;25.10;99.90
10282;DHT22;5186;59.472;18.048;2022-08-03T12:41:53;25.20;99.90
10282;DHT22;5186;59.472;18.048;2022-08-03T12:44:28;25.30;99.90
10282;DHT22;5186;59.472;18.048;2022-08-03T12:46:57;25.40;99.90
10282;DHT22;5186;59.472;18.048;2022-08-03T12:49:23;25.40;99.90
10282;DHT22;5186;59.472;18.048;2022-08-03T12:54:19;25.50;99.90
10282;DHT22;5186;59.472;18.048;2022-08-03T12:59:31;25.50;99.90
10282;DHT22;5186;59.472;18.048;2022-08-03T13:01:57;25.50;99.90
10282;DHT22;5186;59.472;18.048;2022-08-03T13:04:34;25.40;99.90
10282;DHT22;5186;59.472;18.048;2022-08-03T13:07:02;25.30;99.90
10282;DHT22;5186;59.472;18.048;2022-08-03T13:09:29;25.30;99.90
10282;DHT22;5186;59.472;18.048;2022-08-03T13:12:09;25.30;99.90
10282;DHT22;5186;59.472;18.048;2022-08-03T13:14:35;25.50;99.90
10282;DHT22;5186;59.472;18.048;2022-08-03T13:17:01;25.60;99.90
10282;DHT22;5186;59.472;18.048;2022-08-03T13:19:27;25.70;99.90
10282;DHT22;5186;59.472;18.048;2022-08-03T13:21:53;25.70;99.90
10282;DHT22;5186;59.472;18.048;2022-08-03T13:24:18;25.80;99.90
10282;DHT22;5186;59.472;18.048;2022-08-03T13:26:44;25.80;99.90
10282;DHT22;5186;59.472;18.048;2022-08-03T13:29:10;25.90;99.90
10282;DHT22;5186;59.472;18.048;2022-08-03T13:31:36;26.00;99.90
10282;DHT22;5186;59.472;18.048;2022-08-03T13:34:01;26.10;99.90
10282;DHT22;5186;59.472;18.048;2022-08-03T13:36:27;26.10;99.90
10282;DHT22;5186;59.472;18.048;2022-08-03T13:38:52;26.00;99.90
10282;DHT22;5186;59.472;18.048;2022-08-03T13:41:18;26.10;99.90
10282;DHT22;5186;59.472;18.048;2022-08-03T13:43:44;26.20;99.90
10282;DHT22;5186;59.472;18.048;2022-08-03T13:46:09;26.20;99.90
10282;DHT22;5186;59.472;18.048;2022-08-03T13:48:35;26.40;99.90
10282;DHT22;5186;59.472;18.048;2022-08-03T13:51:00;26.40;99.90
10282;DHT22;5186;59.472;18.048;2022-08-03T13:53:26;26.30;99.90
10282;DHT22;5186;59.472;18.048;2022-08-03T13:55:51;26.30;99.90
10282;DHT22;5186;59.472;18.048;2022-08-03T13:58:17;26.20;99.90
10282;DHT22;5186;59.472;18.048;2022-08-03T14:00:43;26.00;99.90
10282;DHT22;5186;59.472;18.048;2022-08-03T14:03:08;26.00;99.90
10282;DHT22;5186;59.472;18.048;2022-08-03T14:05:34;26.00;99.90
10282;DHT22;5186;59.472;18.048;2022-08-03T14:08:00;26.00;99.90
10282;DHT22;5186;59.472;18.048;2022-08-03T14:10:26;26.00;99.90
10282;DHT22;5186;59.472;18.048;2022-08-03T14:12:51;26.00;99.90
10282;DHT22;5186;59.472;18.048;2022-08-03T14:15:17;25.90;99.90
10282;DHT22;5186;59.472;18.048;2022-08-03T14:17:43;25.90;99.90
10282;DHT22;5186;59.472;18.048;2022-08-03T14:20:09;25.80;99.90
10282;DHT22;5186;59.472;18.048;2022-08-03T14:22:37;25.80;99.90
10282;DHT22;5186;59.472;18.048;2022-08-03T14:25:02;25.80;99.90
10282;DHT22;5186;59.472;18.048;2022-08-03T14:27:28;25.80;99.90
10282;DHT22;5186;59.472;18.048;2022-08-03T14:29:54;25.70;99.90
10282;DHT22;5186;59.472;18.048;2022-08-03T14:32:24;25.70;99.90
10282;DHT22;5186;59.472;18.048;2022-08-03T14:34:50;25.80;99.90
10282;DHT22;5186;59.472;18.048;2022-08-03T14:37:15;25.80;99.90
10282;DHT22;5186;59.472;18.048;2022-08-03T14:39:41;26.00;99.90
10282;DHT22;5186;59.472;18.048;2022-08-03T14:42:08;26.00;99.90
10282;DHT22;5186;59.472;18.048;2022-08-03T14:44:33;26.10;99.90
10282;DHT22;5186;59.472;18.048;2022-08-03T14:46:59;26.10;99.90
10282;DHT22;5186;59.472;18.048;2022-08-03T14:49:24;26.10;99.90
10282;DHT22;5186;59.472;18.048;2022-08-03T14:51:51;26.20;99.90
10282;DHT22;5186;59.472;18.048;2022-08-03T14:54:16;26.30;99.90
10282;DHT22;5186;59.472;18.048;2022-08-03T14:56:42;26.40;99.90
10282;DHT22;5186;59.472;18.048;2022-08-03T14:59:07;26.50;99.90
10282;DHT22;5186;59.472;18.048;2022-08-03T15:01:33;26.50;99.90
10282;DHT22;5186;59.472;18.048;2022-08-03T15:03:58;26.50;99.90
10282;DHT22;5186;59.472;18.048;2022-08-03T15:06:24;26.40;99.90
10282;DHT22;5186;59.472;18.048;2022-08-03T15:08:50;26.30;99.90
10282;DHT22;5186;59.472;18.048;2022-08-03T15:11:15;26.20;99.90
10282;DHT22;5186;59.472;18.048;2022-08-03T15:13:41;26.10;99.90
10282;DHT22;5186;59.472;18.048;2022-08-03T15:16:07;26.10;99.90
10282;DHT22;5186;59.472;18.048;2022-08-03T15:18:33;26.20;99.90
10282;DHT22;5186;59.472;18.048;2022-08-03T15:20:59;26.30;99.90
10282;DHT22;5186;59.472;18.048;2022-08-03T15:23:24;26.40;99.90
10282;DHT22;5186;59.472;18.048;2022-08-03T15:25:51;26.50;99.90
10282;DHT22;5186;59.472;18.048;2022-08-03T15:28:16;26.60;99.90
10282;DHT22;5186;59.472;18.048;2022-08-03T15:30:42;26.60;99.90
10282;DHT22;5186;59.472;18.048;2022-08-03T15:33:08;26.60;99.90
10282;DHT22;5186;59.472;18.048;2022-08-03T15:35:33;26.50;99.90
10282;DHT22;5186;59.472;18.048;2022-08-03T15:37:59;26.30;99.90
10282;DHT22;5186;59.472;18.048;2022-08-03T15:40:25;26.20;99.90
10282;DHT22;5186;59.472;18.048;2022-08-03T15:42:51;26.10;99.90
10282;DHT22;5186;59.472;18.048;2022-08-03T15:45:16;26.00;99.90
10282;DHT22;5186;59.472;18.048;2022-08-03T15:47:42;25.90;99.90
10282;DHT22;5186;59.472;18.048;2022-08-03T15:50:08;25.80;99.90
10282;DHT22;5186;59.472;18.048;2022-08-03T15:52:33;25.70;99.90
10282;DHT22;5186;59.472;18.048;2022-08-03T15:54:59;25.70;99.90
10282;DHT22;5186;59.472;18.048;2022-08-03T15:57:25;25.60;99.90
10282;DHT22;5186;59.472;18.048;2022-08-03T15:59:50;25.60;99.90
10282;DHT22;5186;59.472;18.048;2022-08-03T16:02:16;25.50;99.90
10282;DHT22;5186;59.472;18.048;2022-08-03T16:04:42;25.50;99.90
10282;DHT22;5186;59.472;18.048;2022-08-03T16:07:07;25.40;99.90
10282;DHT22;5186;59.472;18.048;2022-08-03T16:09:33;25.30;99.90
10282;DHT22;5186;59.472;18.048;2022-08-03T16:11:59;25.30;99.90
10282;DHT22;5186;59.472;18.048;2022-08-03T16:14:24;25.30;99.90
10282;DHT22;5186;59.472;18.048;2022-08-03T16:16:50;25.20;99.90
10282;DHT22;5186;59.472;18.048;2022-08-03T16:19:16;25.10;99.90
10282;DHT22;5186;59.472;18.048;2022-08-03T16:21:41;25.00;99.90